Time;durP1;ratioP1;P1;durP2;ratioP2;P2;SDS_P1;SDS_P2;PMS_P1;PMS_P2;Temp;Humidity;BMP_temperature;BMP_pressure;BME280_temperature;BME280_humidity;BME280_pressure;Samples;Min_cycle;Max_cycle;Signal;HPM_P1;HPM_P2
2023/06/09 00:01:44;;;;;;;13.90;7.53;;;26.20;64.00;;;;;;7388181;19;20010;-77
2023/06/09 00:04:17;;;;;;;13.07;8.13;;;26.10;64.10;;;;;;7395598;19;20015;-77
2023/06/09 00:06:46;;;;;;;13.65;7.10;;;26.10;64.00;;;;;;7395685;19;20007;-78
2023/06/09 00:09:15;;;;;;;19.13;7.95;;;26.10;64.10;;;;;;7388770;19;20010;-77
2023/06/09 00:11:45;;;;;;;10.95;7.57;;;26.10;64.20;;;;;;7412444;19;20684;-77
2023/06/09 00:14:14;;;;;;;14.10;7.82;;;26.10;64.40;;;;;;7386463;19;20062;-77
2023/06/09 00:16:46;;;;;;;10.85;7.95;;;26.00;64.40;;;;;;7384932;19;20010;-77
2023/06/09 00:19:18;;;;;;;12.25;7.72;;;26.00;64.60;;;;;;7388639;19;20006;-77
2023/06/09 00:21:49;;;;;;;13.75;7.63;;;26.00;64.70;;;;;;7387064;19;20023;-77
2023/06/09 00:24:19;;;;;;;11.35;8.55;;;26.00;64.70;;;;;;7386636;19;20013;-77
2023/06/09 00:26:49;;;;;;;13.07;8.03;;;26.00;64.70;;;;;;7407334;19;20260;-77
2023/06/09 00:29:20;;;;;;;15.60;7.70;;;25.90;64.50;;;;;;7385249;19;20003;-77
2023/06/09 00:31:48;;;;;;;11.95;7.45;;;25.90;64.60;;;;;;7386335;19;19999;-77
2023/06/09 00:34:20;;;;;;;11.35;8.27;;;25.90;64.70;;;;;;7385447;19;20019;-77
2023/06/09 00:36:49;;;;;;;9.20;7.35;;;25.90;64.90;;;;;;7385745;19;20014;-77
2023/06/09 00:39:17;;;;;;;9.57;7.65;;;25.90;65.00;;;;;;7385979;19;20011;-77
2023/06/09 00:41:46;;;;;;;12.23;7.70;;;25.80;65.00;;;;;;7408587;19;20011;-77
2023/06/09 00:44:15;;;;;;;13.50;7.60;;;25.80;65.00;;;;;;7382808;19;20010;-78
2023/06/09 00:46:47;;;;;;;14.95;8.55;;;25.80;65.10;;;;;;7387713;19;20271;-78
2023/06/09 00:49:16;;;;;;;11.10;7.85;;;25.80;65.10;;;;;;7389643;19;20003;-76
2023/06/09 00:51:48;;;;;;;14.10;8.63;;;25.80;65.10;;;;;;7388953;19;20007;-78
2023/06/09 00:54:18;;;;;;;11.63;8.00;;;25.80;65.40;;;;;;7388874;19;20010;-76
2023/06/09 00:56:47;;;;;;;14.40;7.97;;;25.70;65.30;;;;;;7407506;19;20006;-77
2023/06/09 00:59:18;;;;;;;13.57;7.53;;;25.80;65.40;;;;;;7385546;19;20025;-77
2023/06/09 01:01:47;;;;;;;9.48;7.15;;;25.80;65.40;;;;;;7386475;19;19998;-77
2023/06/09 01:04:16;;;;;;;10.25;8.05;;;25.80;65.20;;;;;;7386312;19;20007;-77
2023/06/09 01:06:56;;;;;;;12.07;7.45;;;25.70;65.30;;;;;;7383703;19;20002;-77
2023/06/09 01:09:41;;;;;;;10.73;7.35;;;25.70;65.40;;;;;;7388503;19;20410;-79
2023/06/09 01:12:18;;;;;;;12.77;8.23;;;25.60;65.50;;;;;;7388555;19;20224;-77
2023/06/09 01:14:52;;;;;;;13.95;7.95;;;25.60;65.50;;;;;;7407222;19;19999;-77
2023/06/09 01:17:23;;;;;;;11.68;8.02;;;25.50;65.60;;;;;;7383683;19;20020;-77
2023/06/09 01:19:57;;;;;;;12.90;8.48;;;25.40;65.80;;;;;;7384732;19;20014;-77
2023/06/09 01:22:42;;;;;;;15.75;8.15;;;25.40;66.00;;;;;;7386971;19;20472;-77
2023/06/09 01:25:34;;;;;;;19.00;8.88;;;25.40;66.10;;;;;;7386270;19;20023;-77
2023/06/09 01:28:06;;;;;;;17.65;8.43;;;25.30;66.20;;;;;;7385270;19;20010;-77
2023/06/09 01:30:40;;;;;;;11.57;7.32;;;25.40;66.50;;;;;;7386154;19;20054;-76
2023/06/09 01:33:11;;;;;;;11.27;7.80;;;25.40;67.50;;;;;;7385374;19;20002;-76
2023/06/09 01:35:42;;;;;;;13.60;8.30;;;25.40;66.60;;;;;;7405256;19;20031;-76
2023/06/09 01:38:11;;;;;;;12.95;8.68;;;25.40;66.60;;;;;;7382528;19;20006;-77
2023/06/09 01:40:45;;;;;;;11.50;7.95;;;25.40;66.80;;;;;;7384977;19;20003;-78
2023/06/09 01:43:14;;;;;;;10.68;8.02;;;25.40;66.70;;;;;;7383436;19;20384;-77
2023/06/09 01:45:43;;;;;;;9.18;7.68;;;25.40;66.60;;;;;;7386225;19;20003;-76
2023/06/09 01:48:22;;;;;;;15.57;8.20;;;25.40;66.60;;;;;;7383668;19;20023;-77
2023/06/09 01:50:58;;;;;;;10.65;8.25;;;25.40;66.60;;;;;;7405575;19;20006;-76
2023/06/09 01:53:33;;;;;;;9.85;7.53;;;25.40;66.60;;;;;;7383070;19;20002;-76
2023/06/09 01:56:10;;;;;;;10.73;8.35;;;25.40;66.50;;;;;;7391769;19;20003;-76
2023/06/09 01:58:44;;;;;;;15.35;9.00;;;25.40;66.60;;;;;;7387073;19;20058;-77
2023/06/09 02:01:16;;;;;;;14.95;8.48;;;25.40;66.60;;;;;;7382235;19;19999;-77
2023/06/09 02:03:49;;;;;;;14.30;8.48;;;25.40;67.50;;;;;;7383024;19;20022;-77
2023/06/09 02:06:19;;;;;;;14.30;8.30;;;25.30;66.70;;;;;;7396418;19;20011;-77
2023/06/09 02:08:48;;;;;;;12.02;8.93;;;25.30;66.80;;;;;;7417281;19;20042;-77
2023/06/09 02:11:19;;;;;;;15.23;8.95;;;25.30;66.90;;;;;;7386649;19;20012;-76
2023/06/09 02:13:54;;;;;;;;;;;25.20;66.90;;;;;;7385309;19;20010;-76
2023/06/09 02:16:24;;;;;;;16.15;8.25;;;25.30;67.20;;;;;;7385194;19;19911;-77
2023/06/09 02:18:53;;;;;;;12.85;8.18;;;25.10;67.20;;;;;;7386480;19;20220;-76
2023/06/09 02:21:21;;;;;;;11.25;8.60;;;25.00;67.40;;;;;;7386626;19;20028;-76
2023/06/09 02:23:50;;;;;;;11.90;8.18;;;24.90;67.70;;;;;;7404145;19;20006;-76
2023/06/09 02:26:22;;;;;;;13.88;8.50;;;24.90;67.80;;;;;;7381985;19;20080;-76
2023/06/09 02:28:51;;;;;;;17.02;8.70;;;24.90;67.80;;;;;;7383526;19;20029;-76
2023/06/09 02:31:20;;;;;;;17.48;9.43;;;24.90;67.80;;;;;;7384809;19;20012;-77
2023/06/09 02:33:49;;;;;;;13.98;8.73;;;24.90;67.90;;;;;;7385466;19;20378;-77
2023/06/09 02:36:18;;;;;;;11.82;8.77;;;24.70;68.00;;;;;;7384955;19;20369;-77
2023/06/09 02:38:46;;;;;;;14.25;9.10;;;24.80;68.30;;;;;;7406015;19;20019;-78
2023/06/09 02:41:15;;;;;;;14.30;9.07;;;24.70;68.30;;;;;;7382147;19;20014;-77
2023/06/09 02:43:46;;;;;;;15.73;9.30;;;24.70;68.50;;;;;;7382006;19;20006;-77
2023/06/09 02:46:17;;;;;;;;;;;24.70;68.70;;;;;;7385190;19;20007;-77
2023/06/09 02:48:46;;;;;;;12.68;8.95;;;24.80;68.80;;;;;;7385850;19;19939;-78
2023/06/09 02:51:15;;;;;;;12.60;9.20;;;24.70;68.60;;;;;;7385454;19;20007;-78
2023/06/09 02:53:45;;;;;;;16.25;9.63;;;24.60;68.80;;;;;;7406771;19;19999;-77
2023/06/09 02:56:14;;;;;;;17.02;8.50;;;24.60;69.10;;;;;;7385230;19;20300;-78
2023/06/09 02:58:46;;;;;;;15.82;8.77;;;24.50;69.20;;;;;;7382203;19;20258;-77
2023/06/09 03:01:19;;;;;;;12.65;8.15;;;24.50;69.30;;;;;;7384652;19;20230;-77
2023/06/09 03:03:48;;;;;;;15.88;9.48;;;24.50;69.30;;;;;;7385512;19;20006;-77
2023/06/09 03:06:19;;;;;;;12.95;9.05;;;24.60;69.40;;;;;;7385437;19;20011;-77
2023/06/09 03:08:48;;;;;;;12.07;8.57;;;24.60;69.20;;;;;;7411662;19;20418;-77
2023/06/09 03:11:19;;;;;;;13.18;8.82;;;24.60;69.10;;;;;;7389027;19;20011;-77
2023/06/09 03:13:50;;;;;;;18.10;9.80;;;24.60;69.10;;;;;;7389437;19;20267;-77
2023/06/09 03:16:19;;;;;;;;;;;24.60;69.10;;;;;;7390893;19;20019;-77
2023/06/09 03:18:48;;;;;;;14.00;9.23;;;24.70;69.20;;;;;;7388402;19;20266;-77
2023/06/09 03:21:18;;;;;;;12.50;9.25;;;24.60;68.90;;;;;;7388236;19;20006;-76
2023/06/09 03:23:47;;;;;;;13.20;9.80;;;24.60;69.10;;;;;;7408447;19;20299;-78
2023/06/09 03:26:17;;;;;;;14.18;9.88;;;24.60;69.30;;;;;;7390849;19;20027;-78
2023/06/09 03:28:46;;;;;;;15.18;9.70;;;24.50;69.40;;;;;;7390276;19;20010;-77
2023/06/09 03:31:17;;;;;;;13.32;9.27;;;24.50;69.50;;;;;;7389171;19;20003;-78
2023/06/09 03:33:46;;;;;;;;;;;24.40;69.50;;;;;;7388101;19;20244;-77
2023/06/09 03:36:15;;;;;;;15.15;9.90;;;24.40;69.50;;;;;;7387450;19;19922;-77
2023/06/09 03:38:43;;;;;;;13.93;9.35;;;24.40;69.70;;;;;;7410002;19;20042;-77
2023/06/09 03:41:12;;;;;;;13.70;9.65;;;24.40;69.70;;;;;;7390137;19;20017;-77
2023/06/09 03:43:41;;;;;;;14.02;9.88;;;24.30;69.70;;;;;;7388918;19;20002;-77
2023/06/09 03:46:10;;;;;;;15.68;10.10;;;24.30;70.00;;;;;;7389825;19;20359;-77
2023/06/09 03:48:42;;;;;;;15.68;10.23;;;24.30;70.20;;;;;;7387497;19;20019;-77
2023/06/09 03:51:11;;;;;;;11.60;8.93;;;24.20;70.30;;;;;;7387576;19;20010;-77
2023/06/09 03:53:40;;;;;;;15.80;9.27;;;24.20;70.30;;;;;;7408625;19;20006;-76
2023/06/09 03:56:09;;;;;;;16.83;9.20;;;24.20;70.00;;;;;;7385912;19;20003;-77
2023/06/09 03:58:38;;;;;;;12.70;9.40;;;24.20;70.20;;;;;;7387796;19;20006;-77
2023/06/09 04:01:10;;;;;;;20.10;9.40;;;24.30;70.20;;;;;;7386252;19;20094;-77
2023/06/09 04:03:41;;;;;;;12.60;9.77;;;24.20;70.00;;;;;;7386153;19;20046;-77
2023/06/09 04:06:10;;;;;;;16.88;9.50;;;24.20;70.00;;;;;;7387455;19;20031;-77
2023/06/09 04:08:39;;;;;;;18.60;9.85;;;24.20;70.20;;;;;;7408330;19;20386;-77
2023/06/09 04:11:08;;;;;;;18.27;10.02;;;24.20;70.30;;;;;;7387119;19;20075;-77
2023/06/09 04:13:37;;;;;;;13.80;10.30;;;24.10;70.50;;;;;;7387806;19;20395;-77
2023/06/09 04:16:06;;;;;;;16.95;10.25;;;24.10;70.80;;;;;;7394528;19;20002;-77
2023/06/09 04:18:35;;;;;;;19.98;10.13;;;24.00;71.10;;;;;;7392813;19;20024;-76
2023/06/09 04:21:07;;;;;;;15.85;9.93;;;24.00;71.30;;;;;;7389263;19;20013;-77
2023/06/09 04:23:38;;;;;;;15.77;9.75;;;24.00;72.20;;;;;;7406793;19;20014;-78
2023/06/09 04:26:09;;;;;;;17.13;10.45;;;24.00;71.40;;;;;;7388960;19;20003;-78
2023/06/09 04:28:39;;;;;;;12.30;9.27;;;24.00;71.20;;;;;;7389236;19;20035;-77
2023/06/09 04:31:08;;;;;;;16.45;9.90;;;24.00;71.10;;;;;;7391683;19;20058;-77
2023/06/09 04:33:39;;;;;;;13.35;9.55;;;24.00;71.20;;;;;;7390415;19;20011;-77
2023/06/09 04:36:11;;;;;;;21.52;9.50;;;24.00;71.20;;;;;;7390794;19;20017;-77
2023/06/09 04:38:41;;;;;;;23.10;10.63;;;24.00;71.30;;;;;;7410890;19;20035;-77
2023/06/09 04:41:09;;;;;;;17.10;9.82;;;24.00;71.40;;;;;;7386869;19;20007;-77
2023/06/09 04:43:39;;;;;;;21.75;10.07;;;24.00;71.50;;;;;;7386562;19;20007;-77
2023/06/09 04:46:08;;;;;;;19.98;10.27;;;24.10;71.50;;;;;;7386587;19;20027;-77
2023/06/09 04:48:37;;;;;;;19.17;11.05;;;24.10;71.50;;;;;;7386836;19;20006;-77
2023/06/09 04:51:07;;;;;;;19.77;10.93;;;24.20;71.50;;;;;;7389452;19;20015;-77
2023/06/09 04:53:39;;;;;;;15.37;10.70;;;24.20;71.40;;;;;;7409083;19;20041;-77
2023/06/09 04:56:13;;;;;;;17.70;10.15;;;24.20;71.60;;;;;;7389089;19;20006;-77
2023/06/09 04:58:42;;;;;;;24.45;11.20;;;24.10;71.80;;;;;;7385315;19;20313;-77
2023/06/09 05:01:11;;;;;;;17.13;11.50;;;24.20;72.70;;;;;;7386251;19;20007;-77
2023/06/09 05:03:40;;;;;;;20.17;10.00;;;24.20;72.10;;;;;;7384920;19;20006;-77
2023/06/09 05:06:09;;;;;;;20.70;10.30;;;24.20;72.10;;;;;;7382841;19;19999;-77
2023/06/09 05:08:42;;;;;;;17.85;11.27;;;24.20;72.10;;;;;;7407125;19;20003;-77
2023/06/09 05:11:11;;;;;;;22.02;10.30;;;24.20;72.40;;;;;;7385200;19;20011;-77
2023/06/09 05:13:39;;;;;;;14.88;9.73;;;24.30;72.40;;;;;;7385904;19;20010;-77
2023/06/09 05:16:08;;;;;;;17.52;9.88;;;24.30;72.50;;;;;;7387217;19;20011;-77
2023/06/09 05:18:37;;;;;;;18.38;10.30;;;24.40;72.70;;;;;;7400260;19;20018;-77
2023/06/09 05:21:06;;;;;;;15.90;10.48;;;24.40;72.90;;;;;;7406251;19;20014;-77
2023/06/09 05:23:35;;;;;;;20.08;10.90;;;24.40;72.90;;;;;;7415937;19;20016;-76
2023/06/09 05:26:06;;;;;;;19.02;10.35;;;24.50;72.90;;;;;;7383841;19;20020;-75
2023/06/09 05:28:34;;;;;;;;;;;24.50;72.90;;;;;;7384884;19;20003;-76
2023/06/09 05:31:04;;;;;;;18.38;10.30;;;24.70;72.90;;;;;;7385181;19;19917;-76
2023/06/09 05:33:32;;;;;;;23.02;10.52;;;24.70;72.90;;;;;;7384297;19;20007;-76
2023/06/09 05:36:01;;;;;;;14.38;9.95;;;24.70;72.60;;;;;;7383598;19;20018;-77
2023/06/09 05:38:30;;;;;;;21.00;10.85;;;24.80;72.00;;;;;;7407111;19;20011;-78
2023/06/09 05:40:59;;;;;;;18.13;9.57;;;24.90;72.20;;;;;;7391518;19;20003;-77
2023/06/09 05:43:31;;;;;;;15.00;9.57;;;24.90;71.40;;;;;;7385914;19;20021;-76
2023/06/09 05:46:00;;;;;;;16.63;8.35;;;25.00;70.50;;;;;;7385026;19;20241;-76
2023/06/09 05:48:29;;;;;;;13.57;8.57;;;25.10;69.70;;;;;;7383796;19;20023;-76
2023/06/09 05:50:59;;;;;;;16.80;8.30;;;25.20;69.60;;;;;;7405365;19;20010;-76
2023/06/09 05:53:29;;;;;;;21.38;10.00;;;25.30;69.20;;;;;;7383652;19;20161;-76
2023/06/09 05:55:58;;;;;;;17.00;8.85;;;25.30;69.80;;;;;;7384381;19;20228;-76
2023/06/09 05:58:27;;;;;;;15.30;9.80;;;25.40;70.00;;;;;;7385499;19;20002;-76
2023/06/09 06:00:59;;;;;;;15.85;9.05;;;25.40;70.10;;;;;;7385379;19;20006;-77
2023/06/09 06:03:28;;;;;;;13.05;8.73;;;25.50;70.60;;;;;;7382797;19;20006;-76
2023/06/09 06:05:57;;;;;;;15.13;9.40;;;25.60;70.10;;;;;;7402023;19;20304;-76
2023/06/09 06:08:26;;;;;;;18.42;9.10;;;25.60;68.80;;;;;;7382431;19;20006;-76
2023/06/09 06:10:55;;;;;;;11.82;8.35;;;25.60;68.10;;;;;;7382268;19;20007;-77
2023/06/09 06:13:24;;;;;;;12.55;8.23;;;25.70;67.80;;;;;;7382550;19;20010;-77
2023/06/09 06:15:52;;;;;;;16.67;8.02;;;25.70;67.50;;;;;;7382700;19;20023;-77
2023/06/09 06:18:25;;;;;;;12.75;7.93;;;25.80;67.40;;;;;;7380693;19;20010;-77
2023/06/09 06:20:54;;;;;;;15.35;8.95;;;25.80;66.90;;;;;;7402983;19;20031;-77
2023/06/09 06:23:22;;;;;;;17.75;8.38;;;25.90;66.80;;;;;;7382541;19;20030;-77
2023/06/09 06:25:52;;;;;;;17.85;8.27;;;26.00;66.80;;;;;;7395563;19;20009;-77
2023/06/09 06:28:22;;;;;;;14.48;8.38;;;26.00;66.50;;;;;;7395476;19;20007;-77
2023/06/09 06:30:53;;;;;;;18.35;8.30;;;26.10;66.40;;;;;;7384351;19;20232;-77
2023/06/09 06:33:27;;;;;;;12.65;8.18;;;26.10;66.30;;;;;;7382372;19;20010;-77
2023/06/09 06:35:56;;;;;;;15.60;7.97;;;26.20;66.20;;;;;;7405961;19;20010;-76
2023/06/09 06:38:24;;;;;;;18.35;8.00;;;26.20;65.90;;;;;;7384338;19;20019;-77
2023/06/09 06:40:53;;;;;;;21.00;7.70;;;26.30;65.80;;;;;;7381964;19;20020;-77
2023/06/09 06:43:26;;;;;;;15.98;8.00;;;26.30;65.50;;;;;;7381672;19;20027;-76
2023/06/09 06:45:55;;;;;;;26.77;16.00;;;26.40;65.20;;;;;;7380700;19;20026;-76
2023/06/09 06:48:28;;;;;;;13.85;9.02;;;26.40;65.90;;;;;;7387073;19;20042;-76
2023/06/09 06:50:57;;;;;;;12.70;8.27;;;26.50;64.90;;;;;;7407082;19;20011;-76
2023/06/09 06:53:27;;;;;;;10.50;7.63;;;26.60;64.30;;;;;;7384270;19;20043;-76
2023/06/09 06:55:56;;;;;;;13.40;7.72;;;26.60;64.20;;;;;;7380768;19;20027;-76
2023/06/09 06:58:28;;;;;;;13.85;8.13;;;26.60;64.30;;;;;;7381483;19;20020;-76
2023/06/09 07:00:59;;;;;;;13.13;7.80;;;26.60;64.40;;;;;;7380664;19;20007;-77
2023/06/09 07:03:33;;;;;;;17.83;8.07;;;26.60;63.90;;;;;;7381743;19;20006;-77
2023/06/09 07:06:01;;;;;;;15.68;7.78;;;26.60;63.50;;;;;;7382241;19;20006;-76
2023/06/09 07:08:30;;;;;;;14.98;7.47;;;26.60;63.50;;;;;;7404044;19;20223;-76
2023/06/09 07:10:59;;;;;;;15.65;7.65;;;26.60;63.30;;;;;;7381813;19;20093;-77
2023/06/09 07:13:28;;;;;;;17.98;7.60;;;26.60;63.00;;;;;;7380068;19;20002;-77
2023/06/09 07:15:56;;;;;;;18.65;7.97;;;26.60;62.90;;;;;;7380006;19;20373;-76
2023/06/09 07:18:25;;;;;;;14.27;8.00;;;26.60;62.90;;;;;;7379047;19;20059;-76
2023/06/09 07:20:56;;;;;;;13.35;7.53;;;26.60;63.00;;;;;;7402169;19;20025;-76
2023/06/09 07:23:25;;;;;;;17.23;7.20;;;26.60;63.30;;;;;;7380075;19;20058;-76
2023/06/09 07:25:54;;;;;;;14.18;7.35;;;26.70;63.50;;;;;;7379292;19;20027;-76
2023/06/09 07:28:27;;;;;;;13.30;7.25;;;26.70;63.50;;;;;;7383709;19;20022;-76
2023/06/09 07:30:56;;;;;;;14.88;7.68;;;26.70;63.70;;;;;;7382093;19;20007;-76
2023/06/09 07:33:25;;;;;;;17.50;7.38;;;26.80;63.30;;;;;;7379350;19;20010;-78
2023/06/09 07:35:56;;;;;;;17.58;8.55;;;26.80;63.10;;;;;;7399506;19;20002;-77
2023/06/09 07:38:27;;;;;;;19.55;8.82;;;26.80;63.10;;;;;;7379500;19;19998;-76
2023/06/09 07:40:57;;;;;;;18.02;8.15;;;26.80;63.10;;;;;;7380529;19;20003;-78
2023/06/09 07:43:26;;;;;;;12.65;8.32;;;26.80;62.90;;;;;;7380228;19;20003;-77
2023/06/09 07:45:54;;;;;;;12.82;8.50;;;26.80;62.90;;;;;;7379678;19;20024;-76
2023/06/09 07:48:23;;;;;;;18.92;9.23;;;26.90;63.20;;;;;;7380643;19;20036;-78
2023/06/09 07:50:52;;;;;;;12.10;7.63;;;26.90;63.40;;;;;;7403528;19;20006;-77
2023/06/09 07:53:23;;;;;;;15.05;7.78;;;26.90;63.60;;;;;;7386138;19;20082;-77
2023/06/09 07:55:52;;;;;;;16.27;7.47;;;26.90;64.10;;;;;;7388439;19;20011;-76
2023/06/09 07:58:21;;;;;;;16.73;7.90;;;27.00;63.30;;;;;;7390293;19;20429;-77
2023/06/09 08:00:50;;;;;;;21.23;7.72;;;27.00;63.40;;;;;;7388744;19;20063;-77
2023/06/09 08:03:18;;;;;;;13.82;7.10;;;27.10;63.40;;;;;;7387554;19;20010;-76
2023/06/09 08:05:47;;;;;;;13.73;7.15;;;27.10;63.20;;;;;;7406401;19;20373;-77
2023/06/09 08:08:16;;;;;;;12.45;7.57;;;27.10;63.30;;;;;;7386250;19;20010;-77
2023/06/09 08:10:50;;;;;;;10.48;7.53;;;27.10;62.80;;;;;;7386766;19;20010;-77
2023/06/09 08:13:19;;;;;;;17.00;7.90;;;27.10;62.60;;;;;;7388127;19;20251;-77
2023/06/09 08:15:47;;;;;;;14.18;8.20;;;27.10;62.80;;;;;;7389434;19;20058;-76
2023/06/09 08:18:16;;;;;;;13.60;7.50;;;27.10;62.40;;;;;;7389477;19;20019;-76
2023/06/09 08:20:47;;;;;;;12.15;7.03;;;27.10;62.40;;;;;;7407767;19;20102;-76
2023/06/09 08:23:16;;;;;;;15.25;7.10;;;27.20;62.60;;;;;;7385404;19;19998;-76
2023/06/09 08:25:44;;;;;;;13.82;8.40;;;27.20;62.30;;;;;;7385133;19;20006;-76
2023/06/09 08:28:16;;;;;;;14.80;7.68;;;27.20;62.50;;;;;;7386638;19;20282;-76
2023/06/09 08:30:45;;;;;;;17.38;7.05;;;27.20;62.50;;;;;;7385156;19;20002;-77
2023/06/09 08:33:13;;;;;;;16.58;7.53;;;27.30;62.60;;;;;;7386412;19;20023;-76
2023/06/09 08:35:42;;;;;;;17.20;7.57;;;27.30;62.40;;;;;;7417114;19;20007;-77
2023/06/09 08:38:11;;;;;;;15.77;7.47;;;27.30;62.50;;;;;;7399204;19;20007;-77
2023/06/09 08:40:39;;;;;;;12.85;7.05;;;27.40;62.40;;;;;;7398885;19;20007;-77
2023/06/09 08:43:08;;;;;;;14.75;7.03;;;27.40;62.50;;;;;;7388442;19;20014;-77
2023/06/09 08:45:42;;;;;;;13.82;7.72;;;27.50;62.30;;;;;;7386004;19;20007;-77
2023/06/09 08:48:13;;;;;;;16.40;7.65;;;27.50;62.50;;;;;;7386633;19;20007;-77
2023/06/09 08:50:42;;;;;;;12.52;7.30;;;27.50;62.00;;;;;;7408522;19;20003;-77
2023/06/09 08:53:12;;;;;;;16.92;7.65;;;27.50;61.80;;;;;;7396584;19;20002;-77
2023/06/09 08:55:41;;;;;;;11.38;7.00;;;27.50;62.00;;;;;;7408782;19;20014;-77
2023/06/09 08:58:11;;;;;;;13.00;7.43;;;27.50;62.30;;;;;;7396144;19;20003;-77
2023/06/09 09:00:43;;;;;;;13.07;7.05;;;27.60;62.40;;;;;;7387098;19;19999;-77
2023/06/09 09:03:23;;;;;;;17.77;6.78;;;27.60;62.00;;;;;;7388900;19;20011;-76
2023/06/09 09:05:51;;;;;;;10.60;7.15;;;27.60;61.20;;;;;;7413419;19;20260;-76
2023/06/09 09:08:22;;;;;;;15.30;7.68;;;27.60;61.60;;;;;;7388514;19;20269;-77
2023/06/09 09:10:52;;;;;;;10.93;6.90;;;27.60;62.10;;;;;;7385324;19;20011;-77
2023/06/09 09:13:24;;;;;;;24.45;8.02;;;27.70;62.20;;;;;;7385086;19;19999;-76
2023/06/09 09:15:56;;;;;;;13.75;7.20;;;27.70;61.90;;;;;;7383516;19;20026;-77
2023/06/09 09:18:25;;;;;;;16.83;7.57;;;27.70;61.10;;;;;;7382467;19;20031;-76
2023/06/09 09:20:53;;;;;;;18.70;7.90;;;27.80;61.30;;;;;;7409793;19;20039;-77
2023/06/09 09:23:31;;;;;;;10.07;7.78;;;27.80;62.50;;;;;;7389545;19;20024;-76
2023/06/09 09:26:00;;;;;;;15.20;6.85;;;27.80;61.10;;;;;;7387915;19;20006;-76
2023/06/09 09:28:41;;;;;;;11.30;7.00;;;27.90;60.60;;;;;;7384040;19;20003;-77
2023/06/09 09:31:12;;;;;;;12.83;7.60;;;27.90;60.30;;;;;;7388891;19;20002;-77
2023/06/09 09:33:49;;;;;;;16.33;6.50;;;28.00;60.40;;;;;;7384083;19;20252;-76
2023/06/09 09:36:21;;;;;;;13.38;7.10;;;28.10;60.20;;;;;;7383407;19;20021;-77
2023/06/09 09:38:49;;;;;;;11.50;7.25;;;28.20;59.80;;;;;;7405533;19;20014;-77
2023/06/09 09:41:18;;;;;;;11.77;7.18;;;28.20;59.90;;;;;;7383022;19;20059;-77
2023/06/09 09:43:48;;;;;;;17.80;7.30;;;28.20;59.40;;;;;;7382116;19;20010;-76
2023/06/09 09:46:22;;;;;;;26.07;7.13;;;28.30;59.30;;;;;;7383086;19;20013;-77
2023/06/09 09:48:54;;;;;;;12.50;6.88;;;28.30;59.50;;;;;;7383152;19;20007;-77
2023/06/09 09:51:23;;;;;;;13.05;7.13;;;28.40;58.90;;;;;;7386121;19;20027;-77
2023/06/09 09:53:53;;;;;;;10.05;7.07;;;28.30;58.80;;;;;;7407845;19;20065;-76
2023/06/09 09:56:25;;;;;;;13.90;6.68;;;28.40;58.50;;;;;;7382471;19;20003;-76
2023/06/09 09:58:56;;;;;;;12.52;6.88;;;28.50;58.30;;;;;;7382172;19;19999;-76
2023/06/09 10:01:28;;;;;;;11.80;7.13;;;28.60;58.40;;;;;;7382415;19;20016;-77
2023/06/09 10:03:58;;;;;;;14.82;6.78;;;28.60;58.60;;;;;;7382418;19;20011;-77
2023/06/09 10:06:29;;;;;;;16.42;7.18;;;28.70;58.20;;;;;;7381206;19;20031;-77
2023/06/09 10:08:58;;;;;;;10.35;6.80;;;28.60;58.40;;;;;;7404133;19;20246;-77
2023/06/09 10:11:32;;;;;;;13.57;6.90;;;28.70;58.50;;;;;;7384639;19;20011;-77
2023/06/09 10:14:02;;;;;;;14.50;7.28;;;28.80;57.70;;;;;;7385040;19;20057;-77
2023/06/09 10:16:35;;;;;;;10.63;6.47;;;28.80;57.00;;;;;;7383145;19;20019;-77
2023/06/09 10:19:06;;;;;;;16.85;6.90;;;28.90;57.10;;;;;;7382917;19;20035;-77
2023/06/09 10:21:38;;;;;;;17.15;6.75;;;28.90;57.50;;;;;;7381787;19;20262;-77
2023/06/09 10:24:08;;;;;;;13.32;6.53;;;28.90;57.40;;;;;;7382890;19;20018;-76
2023/06/09 10:26:41;;;;;;;12.70;6.23;;;28.90;57.10;;;;;;7404078;19;20014;-76
2023/06/09 10:29:11;;;;;;;10.85;6.45;;;29.00;57.40;;;;;;7383457;19;20243;-76
2023/06/09 10:31:45;;;;;;;15.10;6.40;;;29.00;57.20;;;;;;7384523;19;20031;-76
2023/06/09 10:34:17;;;;;;;12.68;6.80;;;29.00;57.20;;;;;;7385867;19;19998;-76
2023/06/09 10:36:46;;;;;;;;;;;29.00;57.30;;;;;;7382446;19;20006;-76
2023/06/09 10:39:22;;;;;;;10.07;6.38;;;29.10;57.10;;;;;;7379859;19;20140;-77
2023/06/09 10:41:56;;;;;;;9.07;6.60;;;29.20;56.90;;;;;;7403709;19;20002;-76
2023/06/09 10:44:36;;;;;;;16.70;6.30;;;29.20;57.40;;;;;;7387817;19;20006;-76
2023/06/09 10:47:09;;;;;;;8.90;6.47;;;29.20;57.50;;;;;;7397554;19;20006;-77
2023/06/09 10:49:39;;;;;;;14.43;6.88;;;29.20;55.90;;;;;;7384041;19;20003;-76
2023/06/09 10:52:10;;;;;;;14.47;6.60;;;29.20;56.10;;;;;;7381006;19;20020;-76
2023/06/09 10:54:39;;;;;;;8.68;5.95;;;29.20;56.30;;;;;;7381321;19;20244;-76
2023/06/09 10:57:29;;;;;;;11.93;6.30;;;29.30;56.30;;;;;;7381028;19;20006;-77
2023/06/09 10:59:57;;;;;;;10.07;6.20;;;29.40;56.50;;;;;;7402638;19;20013;-76
2023/06/09 11:02:29;;;;;;;13.10;7.22;;;29.50;55.60;;;;;;7380831;19;20007;-76
2023/06/09 11:04:57;;;;;;;9.40;6.45;;;29.70;55.60;;;;;;7380852;19;20070;-76
2023/06/09 11:07:29;;;;;;;11.23;5.55;;;29.80;55.10;;;;;;7380353;19;20030;-76
2023/06/09 11:10:37;;;;;;;17.58;6.10;;;29.90;54.80;;;;;;7381412;19;20287;-76
2023/06/09 11:13:40;;;;;;;11.27;6.25;;;30.10;54.90;;;;;;7383167;19;20020;-77
2023/06/09 11:16:11;;;;;;;14.60;6.18;;;30.20;54.60;;;;;;7382471;19;20010;-76
2023/06/09 11:18:42;;;;;;;10.97;6.40;;;30.30;54.50;;;;;;7382939;19;20044;-76
2023/06/09 11:21:20;;;;;;;14.98;6.25;;;30.20;54.60;;;;;;7383503;19;20271;-76
2023/06/09 11:24:03;;;;;;;10.65;5.90;;;30.30;55.10;;;;;;7404829;19;20023;-76
2023/06/09 11:26:34;;;;;;;8.98;6.15;;;30.40;55.40;;;;;;7381145;19;20003;-76
2023/06/09 11:29:03;;;;;;;13.23;6.53;;;30.50;54.80;;;;;;7389681;19;20084;-77
2023/06/09 11:31:49;;;;;;;13.07;6.78;;;30.60;54.70;;;;;;7387732;19;20007;-77
2023/06/09 11:34:58;;;;;;;11.45;5.93;;;30.70;54.80;;;;;;7388073;19;20002;-77
2023/06/09 11:37:29;;;;;;;14.07;6.38;;;30.60;54.70;;;;;;7388883;19;20027;-77
2023/06/09 11:39:59;;;;;;;11.73;5.60;;;30.60;55.10;;;;;;7391250;19;20011;-77
2023/06/09 11:42:28;;;;;;;9.73;5.88;;;30.70;54.90;;;;;;7389283;19;20011;-77
2023/06/09 11:45:00;;;;;;;8.65;5.68;;;30.70;54.20;;;;;;7406454;19;20027;-77
2023/06/09 11:47:31;;;;;;;12.77;6.00;;;30.70;54.30;;;;;;7385146;19;20070;-77
2023/06/09 11:50:04;;;;;;;11.40;6.40;;;30.80;54.70;;;;;;7386673;19;20003;-77
2023/06/09 11:52:35;;;;;;;15.10;6.15;;;30.90;53.90;;;;;;7386538;19;20075;-77
2023/06/09 11:55:06;;;;;;;9.95;6.13;;;30.90;53.80;;;;;;7387409;19;20002;-77
2023/06/09 11:57:36;;;;;;;10.63;5.93;;;30.90;54.00;;;;;;7385220;19;20078;-77
2023/06/09 12:00:12;;;;;;;12.60;6.15;;;30.90;54.40;;;;;;7387392;19;20370;-77
2023/06/09 12:02:41;;;;;;;7.22;6.00;;;31.00;54.20;;;;;;7410047;19;20029;-77
2023/06/09 12:05:11;;;;;;;11.32;5.95;;;31.00;53.90;;;;;;7387781;19;20006;-77
2023/06/09 12:07:44;;;;;;;13.38;5.68;;;31.00;53.80;;;;;;7388136;19;20010;-77
2023/06/09 12:10:13;;;;;;;11.25;5.75;;;31.00;52.50;;;;;;7390747;19;20003;-76
2023/06/09 12:12:48;;;;;;;7.90;5.78;;;31.00;52.00;;;;;;7388729;19;20035;-77
2023/06/09 12:15:19;;;;;;;16.63;5.80;;;30.90;51.80;;;;;;7389430;19;20011;-77
2023/06/09 12:17:50;;;;;;;7.30;6.15;;;31.00;52.30;;;;;;7418388;19;20007;-77
2023/06/09 12:20:28;;;;;;;8.85;6.07;;;31.00;52.70;;;;;;7408359;19;19999;-77
2023/06/09 12:23:02;;;;;;;8.93;5.55;;;31.10;52.70;;;;;;7394956;19;20009;-77
2023/06/09 12:25:32;;;;;;;8.52;5.60;;;31.10;51.00;;;;;;7392771;19;20014;-76
2023/06/09 12:28:14;;;;;;;9.20;5.57;;;31.10;50.50;;;;;;7388698;19;20232;-76
2023/06/09 12:30:50;;;;;;;9.43;5.60;;;31.00;50.70;;;;;;7389681;19;20256;-77
2023/06/09 12:33:20;;;;;;;14.90;5.97;;;31.00;50.90;;;;;;7386337;19;20037;-77
2023/06/09 12:35:50;;;;;;;8.95;5.45;;;31.00;51.00;;;;;;7407008;19;20044;-77
2023/06/09 12:38:22;;;;;;;;;;;31.00;51.00;;;;;;7381913;19;20007;-77
2023/06/09 12:40:53;;;;;;;8.30;5.65;;;31.10;51.10;;;;;;7385006;19;19927;-77
2023/06/09 12:43:23;;;;;;;7.95;5.55;;;31.30;51.00;;;;;;7388743;19;20003;-76
2023/06/09 12:45:55;;;;;;;10.60;5.07;;;31.50;51.20;;;;;;7389376;19;20011;-77
2023/06/09 12:48:24;;;;;;;10.05;5.68;;;31.60;49.70;;;;;;7404137;19;20014;-77
2023/06/09 12:50:53;;;;;;;10.65;5.65;;;31.70;49.20;;;;;;7413644;19;20010;-76
2023/06/09 12:53:24;;;;;;;10.45;5.43;;;31.70;49.20;;;;;;7385403;19;20022;-77
2023/06/09 12:55:53;;;;;;;12.07;5.75;;;31.70;49.00;;;;;;7385213;19;20015;-77
2023/06/09 12:58:21;;;;;;;6.70;5.30;;;31.70;49.40;;;;;;7383654;19;20002;-77